sensor_id;sensor_type;location;lat;lon;timestamp;P1;durP1;ratioP1;P2;durP2;ratioP2
62419;SDS011;48460;51.616;5.426;2023-04-03T04:58:34;5.07;;;2.90;;
62419;SDS011;48460;51.616;5.426;2023-04-03T05:01:03;6.20;;;3.05;;
62419;SDS011;48460;51.616;5.426;2023-04-03T05:27:13;6.93;;;3.00;;
62419;SDS011;48460;51.616;5.426;2023-04-03T05:30:03;9.25;;;2.90;;
62419;SDS011;48460;51.616;5.426;2023-04-03T05:32:58;5.32;;;2.70;;
62419;SDS011;48460;51.616;5.426;2023-04-03T05:35:24;6.22;;;3.00;;
62419;SDS011;48460;51.616;5.426;2023-04-03T05:41:06;9.63;;;3.00;;
62419;SDS011;48460;51.616;5.426;2023-04-03T05:51:28;6.22;;;2.60;;
62419;SDS011;48460;51.616;5.426;2023-04-03T05:57:44;7.20;;;2.85;;
62419;SDS011;48460;51.616;5.426;2023-04-03T06:04:07;5.55;;;2.72;;
62419;SDS011;48460;51.616;5.426;2023-04-03T06:13:52;6.20;;;2.70;;
62419;SDS011;48460;51.616;5.426;2023-04-03T06:19:48;6.30;;;2.83;;
62419;SDS011;48460;51.616;5.426;2023-04-03T06:22:40;7.72;;;2.70;;
62419;SDS011;48460;51.616;5.426;2023-04-03T06:25:35;14.05;;;3.10;;
62419;SDS011;48460;51.616;5.426;2023-04-03T06:31:55;6.55;;;2.63;;
62419;SDS011;48460;51.616;5.426;2023-04-03T06:34:46;6.60;;;2.90;;
62419;SDS011;48460;51.616;5.426;2023-04-03T06:37:31;5.97;;;2.80;;
62419;SDS011;48460;51.616;5.426;2023-04-03T06:40:02;7.07;;;2.70;;
62419;SDS011;48460;51.616;5.426;2023-04-03T06:46:25;5.65;;;2.50;;
62419;SDS011;48460;51.616;5.426;2023-04-03T06:49:33;6.05;;;2.42;;
62419;SDS011;48460;51.616;5.426;2023-04-03T06:55:44;5.50;;;2.70;;
62419;SDS011;48460;51.616;5.426;2023-04-03T07:45:53;5.97;;;2.63;;
62419;SDS011;48460;51.616;5.426;2023-04-03T08:02:18;11.73;;;2.67;;
62419;SDS011;48460;51.616;5.426;2023-04-03T08:04:48;4.35;;;2.22;;
62419;SDS011;48460;51.616;5.426;2023-04-03T08:20:37;6.40;;;2.55;;
62419;SDS011;48460;51.616;5.426;2023-04-03T08:30:35;7.20;;;2.10;;
62419;SDS011;48460;51.616;5.426;2023-04-03T08:37:28;5.35;;;2.08;;
62419;SDS011;48460;51.616;5.426;2023-04-03T08:57:53;3.08;;;1.55;;
62419;SDS011;48460;51.616;5.426;2023-04-03T09:47:47;4.43;;;1.70;;
62419;SDS011;48460;51.616;5.426;2023-04-03T09:54:36;2.08;;;1.20;;
62419;SDS011;48460;51.616;5.426;2023-04-03T10:16:14;1.50;;;1.13;;
62419;SDS011;48460;51.616;5.426;2023-04-03T12:53:57;6.28;;;1.90;;
62419;SDS011;48460;51.616;5.426;2023-04-03T12:56:48;3.97;;;1.33;;
62419;SDS011;48460;51.616;5.426;2023-04-03T12:59:51;3.75;;;1.90;;
62419;SDS011;48460;51.616;5.426;2023-04-03T13:03:01;5.78;;;1.70;;
62419;SDS011;48460;51.616;5.426;2023-04-03T13:05:36;3.15;;;1.77;;
62419;SDS011;48460;51.616;5.426;2023-04-03T13:18:31;4.03;;;1.70;;
62419;SDS011;48460;51.616;5.426;2023-04-03T13:25:14;3.95;;;1.77;;
62419;SDS011;48460;51.616;5.426;2023-04-03T13:30:36;3.00;;;1.83;;
62419;SDS011;48460;51.616;5.426;2023-04-03T13:33:24;2.50;;;1.75;;
62419;SDS011;48460;51.616;5.426;2023-04-03T13:36:20;2.50;;;1.55;;
62419;SDS011;48460;51.616;5.426;2023-04-03T13:41:42;4.13;;;1.85;;
62419;SDS011;48460;51.616;5.426;2023-04-03T13:44:30;4.53;;;2.10;;
62419;SDS011;48460;51.616;5.426;2023-04-03T13:47:22;3.63;;;2.00;;
62419;SDS011;48460;51.616;5.426;2023-04-03T13:55:35;6.28;;;2.00;;
62419;SDS011;48460;51.616;5.426;2023-04-03T13:58:20;4.05;;;2.00;;
62419;SDS011;48460;51.616;5.426;2023-04-03T14:00:54;3.20;;;1.90;;
62419;SDS011;48460;51.616;5.426;2023-04-03T14:03:33;3.35;;;1.80;;
62419;SDS011;48460;51.616;5.426;2023-04-03T14:06:15;6.07;;;2.28;;
62419;SDS011;48460;51.616;5.426;2023-04-03T14:08:50;4.22;;;2.00;;
62419;SDS011;48460;51.616;5.426;2023-04-03T14:11:22;3.83;;;2.00;;
62419;SDS011;48460;51.616;5.426;2023-04-03T14:13:53;5.82;;;1.95;;
62419;SDS011;48460;51.616;5.426;2023-04-03T14:16:25;3.92;;;2.10;;
62419;SDS011;48460;51.616;5.426;2023-04-03T14:18:54;6.07;;;2.30;;
62419;SDS011;48460;51.616;5.426;2023-04-03T14:21:20;4.78;;;2.00;;
62419;SDS011;48460;51.616;5.426;2023-04-03T14:23:46;6.75;;;2.28;;
62419;SDS011;48460;51.616;5.426;2023-04-03T14:26:19;6.50;;;2.17;;
62419;SDS011;48460;51.616;5.426;2023-04-03T14:28:47;6.40;;;2.17;;
62419;SDS011;48460;51.616;5.426;2023-04-03T14:33:44;4.53;;;2.05;;
62419;SDS011;48460;51.616;5.426;2023-04-03T14:36:14;5.32;;;2.40;;
62419;SDS011;48460;51.616;5.426;2023-04-03T14:38:42;5.78;;;2.30;;
62419;SDS011;48460;51.616;5.426;2023-04-03T14:41:13;3.45;;;1.90;;
62419;SDS011;48460;51.616;5.426;2023-04-03T14:46:26;4.43;;;2.10;;
62419;SDS011;48460;51.616;5.426;2023-04-03T14:49:04;4.95;;;1.90;;
62419;SDS011;48460;51.616;5.426;2023-04-03T14:51:43;3.08;;;2.00;;
62419;SDS011;48460;51.616;5.426;2023-04-03T14:54:17;4.65;;;2.20;;
62419;SDS011;48460;51.616;5.426;2023-04-03T14:56:46;5.88;;;2.20;;
62419;SDS011;48460;51.616;5.426;2023-04-03T14:59:12;4.97;;;2.33;;
62419;SDS011;48460;51.616;5.426;2023-04-03T15:01:40;5.93;;;2.15;;
62419;SDS011;48460;51.616;5.426;2023-04-03T15:04:20;6.90;;;2.13;;
62419;SDS011;48460;51.616;5.426;2023-04-03T15:06:46;5.55;;;2.10;;
62419;SDS011;48460;51.616;5.426;2023-04-03T15:09:25;3.88;;;2.13;;
62419;SDS011;48460;51.616;5.426;2023-04-03T15:11:53;6.95;;;2.13;;
62419;SDS011;48460;51.616;5.426;2023-04-03T15:14:19;6.35;;;2.00;;
62419;SDS011;48460;51.616;5.426;2023-04-03T15:16:45;4.50;;;2.08;;
62419;SDS011;48460;51.616;5.426;2023-04-03T15:19:11;5.90;;;2.03;;
62419;SDS011;48460;51.616;5.426;2023-04-03T15:21:37;4.07;;;2.00;;
62419;SDS011;48460;51.616;5.426;2023-04-03T15:24:03;5.45;;;2.20;;
62419;SDS011;48460;51.616;5.426;2023-04-03T15:26:30;4.97;;;2.20;;
62419;SDS011;48460;51.616;5.426;2023-04-03T15:28:59;8.70;;;2.30;;
62419;SDS011;48460;51.616;5.426;2023-04-03T15:31:24;5.57;;;2.10;;
62419;SDS011;48460;51.616;5.426;2023-04-03T15:33:50;7.88;;;2.05;;
62419;SDS011;48460;51.616;5.426;2023-04-03T15:36:16;8.73;;;2.25;;
62419;SDS011;48460;51.616;5.426;2023-04-03T15:38:41;3.30;;;1.92;;
62419;SDS011;48460;51.616;5.426;2023-04-03T15:41:09;3.88;;;1.95;;
62419;SDS011;48460;51.616;5.426;2023-04-03T15:43:35;4.95;;;2.08;;
62419;SDS011;48460;51.616;5.426;2023-04-03T15:46:00;5.72;;;2.17;;
62419;SDS011;48460;51.616;5.426;2023-04-03T15:51:19;6.25;;;2.00;;
62419;SDS011;48460;51.616;5.426;2023-04-03T15:53:53;6.93;;;2.17;;
62419;SDS011;48460;51.616;5.426;2023-04-03T15:56:19;6.68;;;2.08;;
62419;SDS011;48460;51.616;5.426;2023-04-03T15:58:44;4.88;;;2.05;;
62419;SDS011;48460;51.616;5.426;2023-04-03T16:01:10;5.20;;;2.25;;
62419;SDS011;48460;51.616;5.426;2023-04-03T16:03:40;7.97;;;2.20;;
62419;SDS011;48460;51.616;5.426;2023-04-03T16:06:14;6.13;;;2.20;;
62419;SDS011;48460;51.616;5.426;2023-04-03T16:11:11;3.75;;;2.00;;
62419;SDS011;48460;51.616;5.426;2023-04-03T16:13:47;4.20;;;2.10;;
62419;SDS011;48460;51.616;5.426;2023-04-03T16:16:14;5.68;;;2.20;;
62419;SDS011;48460;51.616;5.426;2023-04-03T16:18:39;5.45;;;2.40;;
62419;SDS011;48460;51.616;5.426;2023-04-03T16:21:06;6.07;;;2.28;;
62419;SDS011;48460;51.616;5.426;2023-04-03T16:23:33;8.80;;;2.50;;
62419;SDS011;48460;51.616;5.426;2023-04-03T16:25:59;5.45;;;2.35;;
62419;SDS011;48460;51.616;5.426;2023-04-03T16:28:24;8.63;;;2.55;;
62419;SDS011;48460;51.616;5.426;2023-04-03T16:30:50;7.43;;;2.28;;
62419;SDS011;48460;51.616;5.426;2023-04-03T16:33:17;6.32;;;2.22;;
62419;SDS011;48460;51.616;5.426;2023-04-03T16:35:46;6.05;;;2.50;;
62419;SDS011;48460;51.616;5.426;2023-04-03T16:38:16;7.43;;;2.15;;
62419;SDS011;48460;51.616;5.426;2023-04-03T16:40:54;6.88;;;2.10;;
62419;SDS011;48460;51.616;5.426;2023-04-03T16:43:22;9.00;;;2.38;;
62419;SDS011;48460;51.616;5.426;2023-04-03T16:45:48;3.90;;;2.00;;
62419;SDS011;48460;51.616;5.426;2023-04-03T16:48:15;5.15;;;2.20;;
62419;SDS011;48460;51.616;5.426;2023-04-03T16:50:46;3.33;;;1.90;;
62419;SDS011;48460;51.616;5.426;2023-04-03T16:53:18;7.07;;;2.10;;
62419;SDS011;48460;51.616;5.426;2023-04-03T16:55:46;2.50;;;1.60;;
62419;SDS011;48460;51.616;5.426;2023-04-03T16:58:26;5.53;;;2.20;;
62419;SDS011;48460;51.616;5.426;2023-04-03T17:01:00;4.45;;;2.20;;
62419;SDS011;48460;51.616;5.426;2023-04-03T17:03:47;4.50;;;2.17;;
62419;SDS011;48460;51.616;5.426;2023-04-03T17:06:17;6.13;;;2.08;;
62419;SDS011;48460;51.616;5.426;2023-04-03T17:08:55;5.57;;;1.85;;
62419;SDS011;48460;51.616;5.426;2023-04-03T17:11:26;6.80;;;2.40;;
62419;SDS011;48460;51.616;5.426;2023-04-03T17:14:01;3.95;;;1.83;;
62419;SDS011;48460;51.616;5.426;2023-04-03T17:16:27;6.88;;;2.00;;
62419;SDS011;48460;51.616;5.426;2023-04-03T17:18:55;4.63;;;2.08;;
62419;SDS011;48460;51.616;5.426;2023-04-03T17:22:04;7.00;;;2.13;;
62419;SDS011;48460;51.616;5.426;2023-04-03T17:24:39;4.60;;;2.00;;
62419;SDS011;48460;51.616;5.426;2023-04-03T17:31:27;6.10;;;2.40;;
62419;SDS011;48460;51.616;5.426;2023-04-03T17:33:53;5.70;;;2.30;;
62419;SDS011;48460;51.616;5.426;2023-04-03T17:36:21;5.93;;;2.40;;
62419;SDS011;48460;51.616;5.426;2023-04-03T17:38:50;4.93;;;2.08;;
62419;SDS011;48460;51.616;5.426;2023-04-03T17:41:30;4.18;;;2.00;;
62419;SDS011;48460;51.616;5.426;2023-04-03T17:44:19;5.45;;;2.60;;
62419;SDS011;48460;51.616;5.426;2023-04-03T17:46:49;7.22;;;2.72;;
62419;SDS011;48460;51.616;5.426;2023-04-03T17:49:28;7.93;;;2.50;;
62419;SDS011;48460;51.616;5.426;2023-04-03T17:52:15;9.10;;;2.45;;
62419;SDS011;48460;51.616;5.426;2023-04-03T17:55:01;6.75;;;2.20;;
62419;SDS011;48460;51.616;5.426;2023-04-03T17:58:09;7.95;;;2.33;;
62419;SDS011;48460;51.616;5.426;2023-04-03T18:00:40;5.50;;;2.38;;
62419;SDS011;48460;51.616;5.426;2023-04-03T18:03:06;4.65;;;2.00;;
62419;SDS011;48460;51.616;5.426;2023-04-03T18:05:39;5.10;;;2.10;;
62419;SDS011;48460;51.616;5.426;2023-04-03T18:08:13;4.45;;;2.30;;
62419;SDS011;48460;51.616;5.426;2023-04-03T18:10:42;5.60;;;2.20;;
62419;SDS011;48460;51.616;5.426;2023-04-03T18:13:19;9.95;;;2.70;;
62419;SDS011;48460;51.616;5.426;2023-04-03T18:16:11;5.45;;;2.42;;
62419;SDS011;48460;51.616;5.426;2023-04-03T18:18:52;4.03;;;2.25;;
62419;SDS011;48460;51.616;5.426;2023-04-03T18:21:18;4.65;;;2.30;;
62419;SDS011;48460;51.616;5.426;2023-04-03T18:23:49;8.13;;;2.25;;
62419;SDS011;48460;51.616;5.426;2023-04-03T18:26:29;4.88;;;2.20;;
62419;SDS011;48460;51.616;5.426;2023-04-03T18:29:39;5.43;;;2.20;;
62419;SDS011;48460;51.616;5.426;2023-04-03T18:32:39;8.23;;;2.50;;
62419;SDS011;48460;51.616;5.426;2023-04-03T18:35:10;6.07;;;2.38;;
62419;SDS011;48460;51.616;5.426;2023-04-03T18:37:40;4.78;;;2.42;;
62419;SDS011;48460;51.616;5.426;2023-04-03T18:43:49;5.63;;;2.60;;
62419;SDS011;48460;51.616;5.426;2023-04-03T18:46:18;5.28;;;2.50;;
62419;SDS011;48460;51.616;5.426;2023-04-03T18:48:52;6.95;;;2.92;;
62419;SDS011;48460;51.616;5.426;2023-04-03T18:52:04;6.30;;;2.67;;
62419;SDS011;48460;51.616;5.426;2023-04-03T18:54:32;6.20;;;2.65;;
62419;SDS011;48460;51.616;5.426;2023-04-03T18:57:40;6.15;;;2.60;;
62419;SDS011;48460;51.616;5.426;2023-04-03T19:00:24;7.28;;;2.70;;
62419;SDS011;48460;51.616;5.426;2023-04-03T19:06:30;9.77;;;2.67;;
62419;SDS011;48460;51.616;5.426;2023-04-03T19:10:09;7.95;;;2.55;;
62419;SDS011;48460;51.616;5.426;2023-04-03T19:13:19;8.02;;;2.72;;
62419;SDS011;48460;51.616;5.426;2023-04-03T19:23:47;5.53;;;2.70;;
62419;SDS011;48460;51.616;5.426;2023-04-03T19:26:37;6.22;;;2.50;;
62419;SDS011;48460;51.616;5.426;2023-04-03T19:29:14;8.07;;;2.35;;
62419;SDS011;48460;51.616;5.426;2023-04-03T19:31:46;6.55;;;2.80;;
62419;SDS011;48460;51.616;5.426;2023-04-03T19:34:22;7.90;;;3.38;;
62419;SDS011;48460;51.616;5.426;2023-04-03T19:37:01;8.68;;;3.17;;
62419;SDS011;48460;51.616;5.426;2023-04-03T19:40:14;7.03;;;2.80;;
62419;SDS011;48460;51.616;5.426;2023-04-03T19:43:37;5.93;;;2.80;;
62419;SDS011;48460;51.616;5.426;2023-04-03T19:46:06;8.27;;;2.60;;
62419;SDS011;48460;51.616;5.426;2023-04-03T19:48:43;6.57;;;2.28;;
62419;SDS011;48460;51.616;5.426;2023-04-03T19:51:12;6.05;;;2.50;;
62419;SDS011;48460;51.616;5.426;2023-04-03T19:53:41;5.63;;;2.80;;
62419;SDS011;48460;51.616;5.426;2023-04-03T19:56:07;5.15;;;2.45;;
62419;SDS011;48460;51.616;5.426;2023-04-03T19:58:33;6.75;;;2.78;;
62419;SDS011;48460;51.616;5.426;2023-04-03T20:00:59;9.05;;;2.67;;
62419;SDS011;48460;51.616;5.426;2023-04-03T20:03:30;11.88;;;2.85;;
62419;SDS011;48460;51.616;5.426;2023-04-03T20:06:33;7.93;;;2.67;;
62419;SDS011;48460;51.616;5.426;2023-04-03T20:09:59;6.47;;;2.70;;
62419;SDS011;48460;51.616;5.426;2023-04-03T20:13:34;5.55;;;2.60;;
62419;SDS011;48460;51.616;5.426;2023-04-03T20:16:22;7.30;;;3.00;;
62419;SDS011;48460;51.616;5.426;2023-04-03T20:19:09;6.60;;;2.90;;
62419;SDS011;48460;51.616;5.426;2023-04-03T20:22:36;6.10;;;2.55;;
62419;SDS011;48460;51.616;5.426;2023-04-03T20:25:11;6.72;;;2.53;;
62419;SDS011;48460;51.616;5.426;2023-04-03T20:27:57;9.75;;;3.10;;
62419;SDS011;48460;51.616;5.426;2023-04-03T20:30:36;7.13;;;2.58;;
62419;SDS011;48460;51.616;5.426;2023-04-03T20:36:32;9.18;;;2.83;;
62419;SDS011;48460;51.616;5.426;2023-04-03T20:38:59;5.95;;;2.70;;
62419;SDS011;48460;51.616;5.426;2023-04-03T20:41:25;7.00;;;2.80;;
62419;SDS011;48460;51.616;5.426;2023-04-03T20:43:52;6.45;;;2.78;;
62419;SDS011;48460;51.616;5.426;2023-04-03T20:46:18;9.10;;;3.00;;
62419;SDS011;48460;51.616;5.426;2023-04-03T20:48:49;6.50;;;3.08;;
62419;SDS011;48460;51.616;5.426;2023-04-03T20:51:16;6.78;;;3.00;;
62419;SDS011;48460;51.616;5.426;2023-04-03T20:53:45;5.95;;;2.83;;
62419;SDS011;48460;51.616;5.426;2023-04-03T20:56:12;8.23;;;2.72;;
62419;SDS011;48460;51.616;5.426;2023-04-03T20:58:38;6.70;;;2.67;;
62419;SDS011;48460;51.616;5.426;2023-04-03T21:01:20;7.57;;;2.72;;
62419;SDS011;48460;51.616;5.426;2023-04-03T21:03:48;5.68;;;2.42;;
62419;SDS011;48460;51.616;5.426;2023-04-03T21:20:40;7.32;;;3.17;;
62419;SDS011;48460;51.616;5.426;2023-04-03T21:23:06;6.32;;;2.67;;
62419;SDS011;48460;51.616;5.426;2023-04-03T21:25:32;9.35;;;2.95;;
62419;SDS011;48460;51.616;5.426;2023-04-03T21:27:57;8.05;;;3.00;;
62419;SDS011;48460;51.616;5.426;2023-04-03T21:30:24;8.50;;;3.00;;
62419;SDS011;48460;51.616;5.426;2023-04-03T21:32:50;7.70;;;2.97;;
62419;SDS011;48460;51.616;5.426;2023-04-03T21:35:18;9.57;;;2.90;;
62419;SDS011;48460;51.616;5.426;2023-04-03T21:37:44;5.55;;;2.60;;
62419;SDS011;48460;51.616;5.426;2023-04-03T21:40:09;7.68;;;2.67;;
62419;SDS011;48460;51.616;5.426;2023-04-03T21:42:35;8.50;;;3.03;;
62419;SDS011;48460;51.616;5.426;2023-04-03T21:45:01;7.05;;;2.80;;
62419;SDS011;48460;51.616;5.426;2023-04-03T21:47:26;11.23;;;3.00;;
62419;SDS011;48460;51.616;5.426;2023-04-03T21:49:52;7.15;;;2.85;;
62419;SDS011;48460;51.616;5.426;2023-04-03T21:52:19;5.45;;;2.75;;
62419;SDS011;48460;51.616;5.426;2023-04-03T21:54:46;7.68;;;3.00;;
62419;SDS011;48460;51.616;5.426;2023-04-03T21:57:11;7.88;;;3.20;;
62419;SDS011;48460;51.616;5.426;2023-04-03T21:59:37;5.13;;;2.72;;
62419;SDS011;48460;51.616;5.426;2023-04-03T22:02:04;9.40;;;2.90;;
62419;SDS011;48460;51.616;5.426;2023-04-03T22:04:29;8.00;;;3.15;;
62419;SDS011;48460;51.616;5.426;2023-04-03T22:06:55;7.60;;;3.30;;
62419;SDS011;48460;51.616;5.426;2023-04-03T22:09:21;7.18;;;2.90;;
62419;SDS011;48460;51.616;5.426;2023-04-03T22:11:48;6.00;;;2.88;;
62419;SDS011;48460;51.616;5.426;2023-04-03T22:14:14;8.25;;;2.92;;
62419;SDS011;48460;51.616;5.426;2023-04-03T22:16:41;11.25;;;3.20;;
62419;SDS011;48460;51.616;5.426;2023-04-03T22:19:11;5.40;;;2.72;;
62419;SDS011;48460;51.616;5.426;2023-04-03T22:21:38;8.77;;;3.10;;
62419;SDS011;48460;51.616;5.426;2023-04-03T22:24:05;6.60;;;2.80;;
62419;SDS011;48460;51.616;5.426;2023-04-03T22:26:30;6.45;;;2.72;;
62419;SDS011;48460;51.616;5.426;2023-04-03T22:28:56;7.78;;;3.10;;
62419;SDS011;48460;51.616;5.426;2023-04-03T22:31:22;8.23;;;3.08;;
62419;SDS011;48460;51.616;5.426;2023-04-03T22:33:48;7.55;;;3.17;;
62419;SDS011;48460;51.616;5.426;2023-04-03T22:36:14;6.53;;;2.90;;
62419;SDS011;48460;51.616;5.426;2023-04-03T22:38:42;6.28;;;2.97;;
62419;SDS011;48460;51.616;5.426;2023-04-03T22:41:08;8.07;;;2.97;;
62419;SDS011;48460;51.616;5.426;2023-04-03T22:43:34;7.22;;;3.08;;
62419;SDS011;48460;51.616;5.426;2023-04-03T22:46:02;8.05;;;3.33;;
62419;SDS011;48460;51.616;5.426;2023-04-03T22:48:29;8.68;;;3.15;;
62419;SDS011;48460;51.616;5.426;2023-04-03T22:50:55;6.80;;;3.05;;
62419;SDS011;48460;51.616;5.426;2023-04-03T22:57:03;9.68;;;3.08;;
62419;SDS011;48460;51.616;5.426;2023-04-03T23:00:24;7.38;;;3.20;;
62419;SDS011;48460;51.616;5.426;2023-04-03T23:12:48;7.28;;;2.60;;
62419;SDS011;48460;51.616;5.426;2023-04-03T23:16:15;7.55;;;2.80;;
62419;SDS011;48460;51.616;5.426;2023-04-03T23:19:23;4.90;;;2.45;;
62419;SDS011;48460;51.616;5.426;2023-04-03T23:22:14;5.57;;;2.55;;
62419;SDS011;48460;51.616;5.426;2023-04-03T23:24:39;8.55;;;3.00;;
62419;SDS011;48460;51.616;5.426;2023-04-03T23:27:05;7.43;;;3.22;;
62419;SDS011;48460;51.616;5.426;2023-04-03T23:29:31;9.38;;;2.88;;
62419;SDS011;48460;51.616;5.426;2023-04-03T23:31:58;7.80;;;3.13;;
62419;SDS011;48460;51.616;5.426;2023-04-03T23:34:23;6.43;;;2.83;;
62419;SDS011;48460;51.616;5.426;2023-04-03T23:36:50;8.38;;;3.08;;
62419;SDS011;48460;51.616;5.426;2023-04-03T23:39:15;7.25;;;3.05;;
62419;SDS011;48460;51.616;5.426;2023-04-03T23:41:43;11.15;;;3.10;;
62419;SDS011;48460;51.616;5.426;2023-04-03T23:44:09;8.35;;;2.90;;
62419;SDS011;48460;51.616;5.426;2023-04-03T23:46:38;9.18;;;2.60;;
62419;SDS011;48460;51.616;5.426;2023-04-03T23:49:03;8.73;;;2.97;;
62419;SDS011;48460;51.616;5.426;2023-04-03T23:51:29;8.05;;;2.92;;
